createdAt,value
2023-04-06T00:01:16.172Z,7.00
2023-04-06T00:02:28.720Z,6.40
2023-04-06T00:03:51.222Z,6.20
2023-04-06T00:06:20.075Z,5.30
2023-04-06T00:07:36.261Z,6.30
2023-04-06T00:08:24.577Z,6.40
2023-04-06T00:09:13.753Z,6.10
2023-04-06T00:10:07.856Z,6.30
2023-04-06T00:11:19.703Z,6.70
2023-04-06T00:12:35.281Z,7.00
2023-04-06T00:14:01.753Z,6.30
2023-04-06T00:15:07.115Z,6.50
2023-04-06T00:16:19.822Z,7.10
2023-04-06T00:17:33.063Z,6.60
2023-04-06T00:18:48.245Z,5.60
2023-04-06T00:20:13.348Z,6.40
2023-04-06T00:21:45.856Z,6.50
2023-04-06T00:23:18.342Z,6.70
2023-04-06T00:24:16.901Z,6.70
2023-04-06T00:25:09.371Z,6.40
2023-04-06T00:25:56.142Z,6.60
2023-04-06T00:26:49.013Z,7.30
2023-04-06T00:27:34.006Z,7.20
2023-04-06T00:28:48.329Z,6.00
2023-04-06T00:29:46.342Z,6.80
2023-04-06T00:30:52.971Z,6.60
2023-04-06T00:32:08.698Z,6.80
2023-04-06T00:33:18.183Z,6.60
2023-04-06T00:34:32.154Z,7.40
2023-04-06T00:35:47.704Z,7.30
2023-04-06T00:36:58.060Z,7.20
2023-04-06T00:37:33.600Z,6.40
2023-04-06T00:38:36.726Z,6.70
2023-04-06T00:39:19.010Z,6.40
2023-04-06T00:40:33.356Z,6.50
2023-04-06T00:41:31.476Z,5.90
2023-04-06T00:42:46.513Z,7.00
2023-04-06T00:43:36.452Z,6.70
2023-04-06T00:44:11.752Z,6.30
2023-04-06T00:45:01.768Z,6.50
2023-04-06T00:46:09.596Z,5.90
2023-04-06T00:46:53.623Z,6.80
2023-04-06T00:48:03.920Z,6.70
2023-04-06T00:49:21.939Z,6.00
2023-04-06T00:50:08.554Z,6.10
2023-04-06T00:50:59.857Z,6.40
2023-04-06T00:53:04.794Z,7.00
2023-04-06T00:54:28.784Z,6.40
2023-04-06T00:55:20.150Z,5.90
2023-04-06T00:56:53.822Z,7.20
2023-04-06T00:57:50.767Z,7.00
2023-04-06T00:58:38.598Z,6.30
2023-04-06T00:59:23.269Z,6.70
2023-04-06T01:00:12.623Z,6.30
2023-04-06T01:01:04.749Z,7.50
2023-04-06T01:02:37.504Z,5.80
2023-04-06T01:03:55.035Z,6.50
2023-04-06T01:04:55.806Z,6.50
2023-04-06T01:05:55.913Z,6.40
2023-04-06T01:06:58.344Z,6.30
2023-04-06T01:07:41.897Z,5.80
2023-04-06T01:08:40.616Z,6.40
2023-04-06T01:09:55.927Z,5.80
2023-04-06T01:10:51.777Z,6.50
2023-04-06T01:11:23.862Z,6.40
2023-04-06T01:12:22.453Z,5.90
2023-04-06T01:13:20.188Z,6.60
2023-04-06T01:14:23.717Z,6.70
2023-04-06T01:15:16.042Z,6.90
2023-04-06T01:16:16.268Z,7.00
2023-04-06T01:17:04.888Z,6.20
2023-04-06T01:18:00.570Z,6.50
2023-04-06T01:19:09.049Z,6.50
2023-04-06T01:19:58.076Z,6.30
2023-04-06T01:20:55.322Z,6.70
2023-04-06T01:22:01.148Z,6.50
2023-04-06T01:22:39.335Z,6.70
2023-04-06T01:23:25.917Z,6.30
2023-04-06T01:24:22.168Z,7.00
2023-04-06T01:25:26.023Z,6.30
2023-04-06T01:26:30.839Z,6.00
2023-04-06T01:27:53.284Z,6.30
2023-04-06T01:29:51.191Z,6.20
2023-04-06T01:31:03.708Z,6.30
2023-04-06T01:31:47.084Z,6.00
2023-04-06T01:32:49.723Z,6.40
2023-04-06T01:33:54.533Z,6.70
2023-04-06T01:35:10.204Z,6.90
2023-04-06T01:35:55.484Z,6.20
2023-04-06T01:37:25.639Z,6.70
2023-04-06T01:38:31.396Z,6.20
2023-04-06T01:39:09.766Z,6.80
2023-04-06T01:39:52.174Z,6.90
2023-04-06T01:40:58.944Z,7.10
2023-04-06T01:42:16.563Z,6.50
2023-04-06T01:43:21.172Z,6.20
2023-04-06T01:44:06.172Z,5.90
2023-04-06T01:44:58.642Z,6.90
2023-04-06T01:45:54.002Z,6.40
2023-04-06T01:46:39.679Z,6.50
2023-04-06T01:47:47.515Z,7.40
2023-04-06T01:48:27.390Z,6.90
2023-04-06T01:49:05.536Z,5.80
2023-04-06T01:49:43.161Z,7.30
2023-04-06T01:50:21.054Z,7.50
2023-04-06T01:51:27.174Z,7.10
2023-04-06T01:52:28.697Z,6.70
2023-04-06T01:53:06.514Z,5.80
2023-04-06T01:53:44.289Z,6.40
2023-04-06T01:55:16.723Z,6.40
2023-04-06T01:56:21.570Z,6.20
2023-04-06T01:57:44.179Z,7.10
2023-04-06T01:58:53.298Z,5.50
2023-04-06T01:59:51.785Z,5.80
2023-04-06T02:01:04.521Z,5.70
2023-04-06T02:01:59.613Z,6.10
2023-04-06T02:02:46.156Z,6.30
2023-04-06T02:03:33.868Z,6.40
2023-04-06T02:04:36.439Z,5.80
2023-04-06T02:05:43.270Z,6.10
2023-04-06T02:06:58.442Z,6.20
2023-04-06T02:07:58.385Z,6.10
2023-04-06T02:08:49.361Z,6.40
2023-04-06T02:09:53.344Z,6.90
2023-04-06T02:10:54.271Z,6.50
2023-04-06T02:12:01.897Z,6.70
2023-04-06T02:12:59.748Z,6.30
2023-04-06T02:14:09.099Z,5.90
2023-04-06T02:14:59.474Z,6.10
2023-04-06T02:16:02.892Z,6.70
2023-04-06T02:17:04.242Z,6.60
2023-04-06T02:18:19.185Z,6.20
2023-04-06T02:19:16.783Z,6.10
2023-04-06T02:20:17.005Z,6.50
2023-04-06T02:21:28.234Z,6.30
2023-04-06T02:22:23.460Z,6.70
2023-04-06T02:23:33.058Z,6.40
2023-04-06T02:24:48.253Z,6.60
2023-04-06T02:25:55.515Z,6.20
2023-04-06T02:27:06.542Z,6.60
2023-04-06T02:28:27.874Z,6.10
2023-04-06T02:29:31.272Z,6.00
2023-04-06T02:30:27.896Z,6.10
2023-04-06T02:31:26.396Z,6.50
2023-04-06T02:32:38.276Z,6.00
2023-04-06T02:33:41.898Z,5.60
2023-04-06T02:35:14.396Z,5.90
2023-04-06T02:36:17.914Z,6.30
2023-04-06T02:37:07.387Z,6.20
2023-04-06T02:37:42.206Z,6.00
2023-04-06T02:38:53.063Z,6.10
2023-04-06T02:40:17.071Z,6.50
2023-04-06T02:41:27.421Z,5.90
2023-04-06T02:42:33.372Z,6.20
2023-04-06T02:43:48.828Z,6.00
2023-04-06T02:45:03.639Z,6.80
2023-04-06T02:46:33.264Z,6.60
2023-04-06T02:47:55.798Z,6.50
2023-04-06T02:50:06.499Z,6.40
2023-04-06T02:51:30.074Z,7.00
2023-04-06T02:52:35.656Z,6.00
2023-04-06T02:53:30.597Z,6.10
2023-04-06T02:54:51.557Z,7.00
2023-04-06T02:56:04.159Z,6.60
2023-04-06T02:56:47.799Z,6.50
2023-04-06T02:57:48.781Z,6.30
2023-04-06T02:59:03.954Z,6.80
2023-04-06T03:00:22.643Z,6.70
2023-04-06T03:01:16.110Z,5.80
2023-04-06T03:02:17.595Z,6.70
2023-04-06T03:03:41.747Z,6.40
2023-04-06T03:04:25.813Z,6.10
2023-04-06T03:05:10.272Z,6.50
2023-04-06T03:06:13.956Z,6.50
2023-04-06T03:07:29.358Z,6.50
2023-04-06T03:08:34.724Z,7.00
2023-04-06T03:09:56.384Z,6.40
2023-04-06T03:11:22.584Z,5.80
2023-04-06T03:12:53.010Z,6.80
2023-04-06T03:14:00.893Z,6.20
2023-04-06T03:15:21.541Z,6.10
2023-04-06T03:16:54.162Z,5.70
2023-04-06T03:17:49.908Z,5.90
2023-04-06T03:19:06.452Z,6.10
2023-04-06T03:20:29.538Z,7.10
2023-04-06T03:21:41.983Z,6.30
2023-04-06T03:23:03.654Z,5.60
2023-04-06T03:24:28.508Z,6.50
2023-04-06T03:25:44.830Z,5.50
2023-04-06T03:27:10.915Z,6.60
2023-04-06T03:28:43.578Z,6.00
2023-04-06T03:29:42.372Z,6.50
2023-04-06T03:30:54.064Z,6.30
2023-04-06T03:32:26.746Z,6.90
2023-04-06T03:34:37.351Z,6.90
2023-04-06T03:35:37.619Z,6.50
2023-04-06T03:36:53.877Z,6.70
2023-04-06T03:38:04.848Z,7.20
2023-04-06T03:39:37.369Z,6.70
2023-04-06T03:40:50.118Z,6.80
2023-04-06T03:41:55.051Z,5.70
2023-04-06T03:43:27.552Z,6.50
2023-04-06T03:44:50.184Z,6.40
2023-04-06T03:47:28.648Z,6.40
2023-04-06T03:48:33.097Z,6.70
2023-04-06T03:49:53.142Z,7.00
2023-04-06T03:51:25.677Z,6.10
2023-04-06T03:52:26.984Z,6.80
2023-04-06T03:53:09.311Z,6.90
2023-04-06T03:54:10.200Z,7.00
2023-04-06T03:55:20.046Z,6.40
2023-04-06T03:56:39.967Z,7.10
2023-04-06T03:57:37.981Z,6.90
2023-04-06T03:59:02.398Z,6.30
2023-04-06T04:00:35.013Z,7.10
2023-04-06T04:01:42.709Z,6.90
2023-04-06T04:02:48.076Z,6.30
2023-04-06T04:04:03.968Z,7.20
2023-04-06T04:05:25.288Z,6.00
2023-04-06T04:06:37.138Z,7.40
2023-04-06T04:07:22.935Z,6.50
2023-04-06T04:08:00.549Z,6.40
2023-04-06T04:08:55.037Z,6.60
2023-04-06T04:09:38.396Z,6.60
2023-04-06T04:10:53.818Z,6.60
2023-04-06T04:11:45.348Z,6.70
2023-04-06T04:12:57.789Z,6.30
2023-04-06T04:14:19.427Z,6.80
2023-04-06T04:15:20.733Z,5.80
2023-04-06T04:16:25.990Z,6.10
2023-04-06T04:17:49.771Z,6.70
2023-04-06T04:18:59.274Z,6.40
2023-04-06T04:19:51.780Z,6.50
2023-04-06T04:20:32.491Z,6.60
2023-04-06T04:21:07.528Z,6.80
2023-04-06T04:22:17.713Z,7.00
2023-04-06T04:23:04.394Z,7.00
2023-04-06T04:24:27.906Z,6.10
2023-04-06T04:25:07.765Z,6.00
2023-04-06T04:25:51.676Z,7.00
2023-04-06T04:26:37.139Z,6.70
2023-04-06T04:27:22.845Z,6.70
2023-04-06T04:28:23.065Z,6.70
2023-04-06T04:29:15.947Z,6.80
2023-04-06T04:29:55.746Z,6.80
2023-04-06T04:30:43.653Z,6.40
2023-04-06T04:31:36.567Z,6.60
2023-04-06T04:32:42.259Z,7.20
2023-04-06T04:33:53.886Z,6.50
2023-04-06T04:34:54.008Z,5.70
2023-04-06T04:35:58.197Z,5.50
2023-04-06T04:36:45.637Z,6.20
2023-04-06T04:37:17.958Z,5.80
2023-04-06T04:38:22.457Z,6.90
2023-04-06T04:39:05.437Z,6.40
2023-04-06T04:40:07.712Z,6.00
2023-04-06T04:40:52.828Z,6.90
2023-04-06T04:42:16.915Z,6.90
2023-04-06T04:43:00.951Z,5.90
2023-04-06T04:43:56.144Z,7.00
2023-04-06T04:44:43.092Z,6.70
2023-04-06T04:45:25.952Z,6.50
2023-04-06T04:46:21.559Z,6.50
2023-04-06T04:47:34.359Z,6.60
2023-04-06T04:48:55.900Z,6.50
2023-04-06T04:50:21.198Z,6.30
2023-04-06T04:51:53.949Z,6.30
2023-04-06T04:52:50.760Z,6.40
2023-04-06T04:53:53.313Z,6.10
2023-04-06T04:54:48.440Z,6.20
2023-04-06T04:55:59.965Z,6.60
2023-04-06T04:57:12.391Z,6.00
2023-04-06T04:58:45.043Z,5.40
2023-04-06T05:00:08.886Z,5.70
2023-04-06T05:01:24.645Z,6.00
2023-04-06T05:02:37.391Z,5.60
2023-04-06T05:03:55.587Z,6.20
2023-04-06T05:04:46.088Z,6.60
2023-04-06T05:05:26.795Z,5.90
2023-04-06T05:07:07.252Z,5.90
2023-04-06T05:08:02.590Z,6.00
2023-04-06T05:09:00.476Z,5.80
2023-04-06T05:09:46.013Z,6.30
2023-04-06T05:10:40.302Z,5.70
2023-04-06T05:11:38.139Z,6.30
2023-04-06T05:12:23.149Z,5.80
2023-04-06T05:13:04.734Z,6.30
2023-04-06T05:14:08.018Z,6.60
2023-04-06T05:15:03.273Z,6.40
2023-04-06T05:16:07.697Z,6.50
2023-04-06T05:17:16.641Z,5.70
2023-04-06T05:18:19.019Z,5.80
2023-04-06T05:19:19.170Z,5.80
2023-04-06T05:20:01.805Z,5.00
2023-04-06T05:20:54.942Z,5.50
2023-04-06T05:22:03.101Z,5.40
2023-04-06T05:23:08.476Z,5.50
2023-04-06T05:23:43.735Z,5.80
2023-04-06T05:24:28.626Z,6.40
2023-04-06T05:25:23.975Z,5.90
2023-04-06T05:26:26.967Z,5.90
2023-04-06T05:27:29.908Z,6.10
2023-04-06T05:28:25.875Z,6.40
2023-04-06T05:29:30.675Z,5.60
2023-04-06T05:30:42.554Z,5.50
2023-04-06T05:31:34.206Z,6.00
2023-04-06T05:32:50.828Z,5.80
2023-04-06T05:34:06.539Z,6.20
2023-04-06T05:35:04.628Z,5.80
2023-04-06T05:36:20.323Z,5.80
2023-04-06T05:37:22.721Z,5.90
2023-04-06T05:38:37.037Z,5.70
2023-04-06T05:39:21.339Z,6.10
2023-04-06T05:40:38.412Z,5.90
2023-04-06T05:41:43.922Z,5.70
2023-04-06T05:43:00.146Z,6.10
2023-04-06T05:44:15.130Z,5.60
2023-04-06T05:45:22.927Z,5.80
2023-04-06T05:46:29.403Z,6.40
2023-04-06T05:47:12.392Z,5.80
2023-04-06T05:48:10.203Z,5.90
2023-04-06T05:49:12.048Z,5.70
2023-04-06T05:50:02.960Z,5.50
2023-04-06T05:50:38.455Z,5.30
2023-04-06T05:51:27.616Z,5.50
2023-04-06T05:52:45.772Z,5.70
2023-04-06T05:53:32.617Z,5.40
2023-04-06T05:54:13.610Z,4.80
2023-04-06T05:55:00.474Z,5.60
2023-04-06T05:56:15.946Z,5.40
2023-04-06T05:57:02.372Z,5.50
2023-04-06T05:57:57.819Z,5.20
2023-04-06T05:58:33.725Z,5.20
2023-04-06T05:59:17.188Z,6.00
2023-04-06T06:00:18.125Z,5.60
2023-04-06T06:01:12.378Z,5.10
2023-04-06T06:02:02.548Z,5.70
2023-04-06T06:02:38.072Z,5.00
2023-04-06T06:03:19.069Z,5.50
2023-04-06T06:04:11.332Z,5.60
2023-04-06T06:04:51.076Z,4.80
2023-04-06T06:05:49.501Z,5.30
2023-04-06T06:06:37.292Z,5.40
2023-04-06T06:08:08.584Z,5.90
2023-04-06T06:08:56.733Z,5.30
2023-04-06T06:10:03.836Z,5.40
2023-04-06T06:10:57.468Z,5.10
2023-04-06T06:12:14.547Z,5.30
2023-04-06T06:12:52.603Z,5.40
2023-04-06T06:13:54.602Z,5.40
2023-04-06T06:15:07.335Z,5.50
2023-04-06T06:15:44.646Z,5.40
2023-04-06T06:16:22.502Z,5.30
2023-04-06T06:17:53.767Z,4.90
2023-04-06T06:18:36.916Z,5.60
2023-04-06T06:19:22.376Z,5.50
2023-04-06T06:20:07.408Z,6.10
2023-04-06T06:21:12.139Z,5.50
2023-04-06T06:22:27.315Z,5.00
2023-04-06T06:23:44.143Z,4.40
2023-04-06T06:25:16.673Z,4.70
2023-04-06T06:26:48.916Z,5.40
2023-04-06T06:27:46.216Z,5.30
2023-04-06T06:28:37.136Z,4.90
2023-04-06T06:29:53.549Z,5.20
2023-04-06T06:31:01.727Z,4.90
2023-04-06T06:32:11.254Z,5.20
2023-04-06T06:33:18.755Z,4.50
2023-04-06T06:34:23.331Z,4.70
2023-04-06T06:35:28.354Z,5.70
2023-04-06T06:36:45.243Z,5.30
2023-04-06T06:38:09.287Z,5.30
2023-04-06T06:39:41.991Z,4.70
2023-04-06T06:40:56.027Z,5.00
2023-04-06T06:42:01.006Z,5.50
2023-04-06T06:43:08.750Z,5.20
2023-04-06T06:44:34.235Z,5.60
2023-04-06T06:45:58.033Z,5.40
2023-04-06T06:47:05.769Z,5.30
2023-04-06T06:48:38.433Z,5.80
2023-04-06T06:49:42.263Z,5.50
2023-04-06T06:50:47.473Z,6.00
2023-04-06T06:52:10.513Z,6.10
2023-04-06T06:53:43.029Z,5.10
2023-04-06T06:54:54.933Z,5.80
2023-04-06T06:56:02.879Z,6.00
2023-04-06T06:57:03.354Z,6.20
2023-04-06T06:58:12.087Z,6.00
2023-04-06T06:59:15.290Z,5.60
2023-04-06T07:00:27.647Z,6.30
2023-04-06T07:01:45.500Z,5.70
2023-04-06T07:02:58.046Z,5.80
2023-04-06T07:04:30.673Z,6.00
2023-04-06T07:05:53.601Z,6.00
2023-04-06T07:07:11.118Z,5.70
2023-04-06T07:08:15.545Z,5.80
2023-04-06T07:09:40.538Z,6.00
2023-04-06T07:11:03.615Z,6.40
2023-04-06T07:12:18.217Z,6.30
2023-04-06T07:13:24.247Z,6.50
2023-04-06T07:14:47.550Z,5.70
2023-04-06T07:15:51.934Z,6.20
2023-04-06T07:16:40.357Z,6.60
2023-04-06T07:17:33.167Z,6.40
2023-04-06T07:18:47.625Z,6.80
2023-04-06T07:20:09.160Z,5.90
2023-04-06T07:21:22.985Z,6.30
2023-04-06T07:22:29.965Z,6.70
2023-04-06T07:23:52.719Z,6.40
2023-04-06T07:25:26.064Z,6.40
2023-04-06T07:26:49.017Z,6.00
2023-04-06T07:28:20.708Z,6.70
2023-04-06T07:29:34.379Z,6.90
2023-04-06T07:31:05.884Z,6.70
2023-04-06T07:32:37.212Z,6.20
2023-04-06T07:34:09.998Z,7.10
2023-04-06T07:35:27.752Z,7.30
2023-04-06T07:36:36.828Z,6.40
2023-04-06T07:38:03.228Z,6.10
2023-04-06T07:39:35.884Z,6.00
2023-04-06T07:40:43.525Z,5.90
2023-04-06T07:41:51.923Z,6.50
2023-04-06T07:42:49.573Z,6.30
2023-04-06T07:43:54.987Z,6.30
2023-04-06T07:44:37.393Z,6.60
2023-04-06T07:46:00.121Z,6.70
2023-04-06T07:47:03.223Z,5.90
2023-04-06T07:47:57.224Z,6.70
2023-04-06T07:48:54.517Z,6.60
2023-04-06T07:49:57.124Z,6.30
2023-04-06T07:51:02.105Z,6.00
2023-04-06T07:51:58.931Z,6.20
2023-04-06T07:53:09.356Z,6.20
2023-04-06T07:54:03.782Z,6.20
2023-04-06T07:54:57.700Z,6.70
2023-04-06T07:56:01.906Z,6.60
2023-04-06T07:57:08.479Z,6.50
2023-04-06T07:58:16.812Z,7.10
2023-04-06T07:59:21.044Z,6.30
2023-04-06T08:00:12.199Z,6.60
2023-04-06T08:01:06.457Z,7.00
2023-04-06T08:01:49.490Z,6.60
2023-04-06T08:02:47.136Z,7.30
2023-04-06T08:03:58.730Z,7.70
2023-04-06T08:05:25.577Z,6.10
2023-04-06T08:06:20.891Z,6.30
2023-04-06T08:07:15.289Z,6.60
2023-04-06T08:08:12.556Z,6.20
2023-04-06T08:09:13.566Z,7.10
2023-04-06T08:10:15.319Z,6.40
2023-04-06T08:11:10.150Z,6.90
2023-04-06T08:12:21.825Z,6.50
2023-04-06T08:12:59.463Z,6.30
2023-04-06T08:14:09.311Z,6.20
2023-04-06T08:15:22.019Z,5.50
2023-04-06T08:16:09.124Z,6.20
2023-04-06T08:17:28.538Z,5.90
2023-04-06T08:18:46.412Z,5.80
2023-04-06T08:19:50.514Z,6.30
2023-04-06T08:20:56.106Z,6.20
2023-04-06T08:21:48.897Z,6.10
2023-04-06T08:23:04.229Z,6.60
2023-04-06T08:24:36.853Z,5.90
2023-04-06T08:25:37.728Z,6.00
2023-04-06T08:26:52.483Z,6.00
2023-04-06T08:27:56.893Z,5.50
2023-04-06T08:29:11.716Z,5.40
2023-04-06T08:30:16.978Z,6.10
2023-04-06T08:31:20.744Z,5.70
2023-04-06T08:31:58.555Z,5.90
2023-04-06T08:33:02.866Z,6.00
2023-04-06T08:34:25.223Z,6.20
2023-04-06T08:35:42.762Z,5.80
2023-04-06T08:36:55.308Z,5.70
2023-04-06T08:37:44.419Z,5.70
2023-04-06T08:38:22.449Z,6.50
2023-04-06T08:39:34.972Z,6.10
2023-04-06T08:40:40.033Z,5.80
2023-04-06T08:41:52.697Z,6.20
2023-04-06T08:42:56.289Z,6.00
2023-04-06T08:44:21.063Z,6.60
2023-04-06T08:45:09.580Z,6.70
2023-04-06T08:45:59.925Z,7.60
2023-04-06T08:46:41.517Z,7.50
2023-04-06T08:47:53.873Z,7.20
2023-04-06T08:48:50.742Z,6.80
2023-04-06T08:49:51.765Z,7.40
2023-04-06T08:51:07.265Z,7.10
2023-04-06T08:51:55.015Z,7.20
2023-04-06T08:52:57.152Z,7.10
2023-04-06T08:54:09.611Z,7.40
2023-04-06T08:54:54.856Z,7.70
2023-04-06T08:55:43.420Z,7.60
2023-04-06T08:56:21.464Z,7.20
2023-04-06T08:57:12.571Z,7.60
2023-04-06T08:58:37.168Z,9.30
2023-04-06T09:00:00.318Z,8.70
2023-04-06T09:01:17.286Z,8.70
2023-04-06T09:02:44.669Z,6.90
2023-04-06T09:04:08.723Z,6.90
2023-04-06T09:05:08.849Z,6.70
2023-04-06T09:06:06.732Z,6.50
2023-04-06T09:07:21.865Z,6.80
2023-04-06T09:08:47.404Z,7.50
2023-04-06T09:09:30.168Z,7.40
2023-04-06T09:10:24.999Z,7.80
2023-04-06T09:11:32.108Z,7.50
2023-04-06T09:12:47.399Z,7.20
2023-04-06T09:14:02.379Z,7.40
2023-04-06T09:14:57.567Z,7.40
2023-04-06T09:15:41.820Z,6.80
2023-04-06T09:16:41.423Z,7.10
2023-04-06T09:17:58.983Z,6.40
2023-04-06T09:19:31.453Z,7.00
2023-04-06T09:20:46.358Z,6.80
2023-04-06T09:21:41.712Z,6.30
2023-04-06T09:22:46.480Z,6.40
2023-04-06T09:23:57.366Z,6.90
2023-04-06T09:25:19.920Z,6.60
2023-04-06T09:26:32.373Z,6.20
2023-04-06T09:28:02.579Z,7.50
2023-04-06T09:29:44.198Z,7.00
2023-04-06T09:31:10.841Z,6.80
2023-04-06T09:32:33.349Z,6.90
2023-04-06T09:33:42.381Z,6.70
2023-04-06T09:35:00.573Z,7.00
2023-04-06T09:36:15.912Z,6.70
2023-04-06T09:37:50.646Z,6.30
2023-04-06T09:38:51.522Z,6.70
2023-04-06T09:39:41.637Z,6.90
2023-04-06T09:40:29.624Z,7.00
2023-04-06T09:41:56.309Z,6.40
2023-04-06T09:43:07.926Z,7.30
2023-04-06T09:44:33.659Z,7.30
2023-04-06T09:45:51.916Z,5.80
2023-04-06T09:47:07.472Z,5.80
2023-04-06T09:48:07.154Z,5.80
2023-04-06T09:49:39.247Z,5.80
2023-04-06T09:51:05.595Z,5.10
2023-04-06T09:52:20.380Z,4.90
2023-04-06T09:53:45.981Z,4.70
2023-04-06T09:55:18.819Z,5.00
2023-04-06T09:56:33.092Z,5.40
2023-04-06T09:58:05.635Z,6.10
2023-04-06T09:59:38.782Z,5.90
2023-04-06T10:01:11.709Z,5.50
2023-04-06T10:03:54.228Z,5.30
2023-04-06T10:05:38.736Z,5.60
2023-04-06T10:06:57.290Z,6.40
2023-04-06T10:08:32.458Z,5.90
2023-04-06T10:09:48.256Z,6.40
2023-04-06T10:11:02.758Z,6.20
2023-04-06T10:12:35.493Z,6.30
2023-04-06T10:13:50.645Z,6.20
2023-04-06T10:15:16.352Z,6.30
2023-04-06T10:16:40.075Z,6.00
2023-04-06T10:17:45.607Z,5.60
2023-04-06T10:18:39.568Z,6.20
2023-04-06T10:20:30.579Z,6.70
2023-04-06T10:21:41.186Z,6.80
2023-04-06T10:23:09.609Z,6.80
2023-04-06T10:24:21.713Z,6.90
2023-04-06T10:26:17.287Z,6.70
2023-04-06T10:28:08.387Z,6.40
2023-04-06T10:29:33.693Z,6.00
2023-04-06T10:31:02.760Z,5.70
2023-04-06T10:32:35.453Z,5.60
2023-04-06T10:34:16.309Z,5.70
2023-04-06T10:35:49.914Z,5.60
2023-04-06T10:37:15.984Z,5.20
2023-04-06T10:39:04.241Z,5.40
2023-04-06T10:40:25.884Z,5.30
2023-04-06T10:41:50.949Z,5.80
2023-04-06T10:43:27.071Z,5.50
2023-04-06T10:44:58.530Z,5.70
2023-04-06T10:46:03.862Z,5.60
2023-04-06T10:47:33.101Z,6.50
2023-04-06T10:49:25.223Z,5.60
2023-04-06T10:50:44.021Z,5.60
2023-04-06T10:52:12.943Z,6.40
2023-04-06T10:53:45.738Z,6.40
2023-04-06T10:55:12.264Z,6.10
2023-04-06T10:56:41.833Z,7.30
2023-04-06T10:58:14.921Z,6.00
2023-04-06T10:59:51.685Z,7.00
2023-04-06T11:01:18.051Z,8.10
2023-04-06T11:02:50.754Z,8.00
2023-04-06T11:04:23.202Z,8.30
2023-04-06T11:05:32.066Z,8.20
2023-04-06T11:06:56.053Z,8.80
2023-04-06T11:08:21.159Z,8.20
2023-04-06T11:09:43.409Z,8.10
2023-04-06T11:11:06.897Z,7.50
2023-04-06T11:12:24.211Z,9.10
2023-04-06T11:13:57.023Z,8.90
2023-04-06T11:15:13.012Z,9.50
2023-04-06T11:16:34.387Z,8.70
2023-04-06T11:18:00.449Z,9.30
2023-04-06T11:19:38.926Z,8.60
2023-04-06T11:21:12.260Z,9.00
2023-04-06T11:22:35.771Z,9.00
2023-04-06T11:24:07.180Z,8.80
2023-04-06T11:25:43.390Z,9.50
2023-04-06T11:27:09.320Z,9.40
2023-04-06T11:28:41.890Z,9.30
2023-04-06T11:30:15.701Z,8.30
2023-04-06T11:31:42.885Z,8.00
2023-04-06T11:35:13.040Z,9.10
2023-04-06T11:36:34.109Z,8.50
2023-04-06T11:38:00.370Z,8.60
2023-04-06T11:39:28.630Z,8.30
2023-04-06T11:40:50.113Z,8.40
2023-04-06T11:42:23.204Z,8.90
2023-04-06T11:43:56.216Z,8.10
2023-04-06T11:45:32.818Z,8.30
2023-04-06T11:47:05.372Z,8.20
2023-04-06T11:57:24.974Z,8.10
2023-04-06T11:58:59.853Z,8.40
2023-04-06T12:00:30.784Z,7.60
2023-04-06T12:02:06.132Z,7.50
2023-04-06T12:03:29.103Z,7.60
2023-04-06T12:05:01.893Z,8.40
2023-04-06T12:06:34.506Z,8.40
2023-04-06T12:07:50.186Z,8.70
2023-04-06T12:09:04.210Z,8.40
2023-04-06T12:10:37.045Z,9.40
2023-04-06T12:11:58.713Z,7.50
2023-04-06T12:13:02.908Z,8.60
2023-04-06T12:14:35.523Z,7.50
2023-04-06T12:16:08.963Z,7.10
2023-04-06T12:17:34.805Z,7.80
2023-04-06T12:19:09.051Z,7.30
2023-04-06T12:32:21.373Z,8.20
2023-04-06T12:33:47.238Z,8.10
2023-04-06T12:35:09.991Z,8.40
2023-04-06T12:36:42.857Z,8.70
2023-04-06T12:38:14.413Z,7.50
2023-04-06T12:39:49.740Z,8.40
2023-04-06T12:41:22.433Z,7.90
2023-04-06T12:42:28.978Z,7.70
2023-04-06T12:43:52.148Z,7.60
2023-04-06T12:44:45.562Z,8.10
2023-04-06T12:45:51.965Z,7.60
2023-04-06T12:47:24.711Z,7.70
2023-04-06T12:48:58.428Z,7.40
2023-04-06T12:50:31.195Z,7.70
2023-04-06T12:51:44.332Z,7.90
2023-04-06T12:52:59.403Z,8.30
2023-04-06T12:54:12.821Z,8.30
2023-04-06T12:55:25.560Z,8.30
2023-04-06T12:56:37.293Z,7.60
2023-04-06T12:57:31.281Z,7.90
2023-04-06T12:58:43.914Z,8.20
2023-04-06T13:00:16.836Z,8.80
2023-04-06T13:01:55.779Z,7.50
2023-04-06T13:03:28.254Z,7.80
2023-04-06T13:04:52.003Z,7.40
2023-04-06T13:06:06.084Z,7.90
2023-04-06T13:07:08.782Z,7.40
2023-04-06T13:08:41.585Z,7.30
2023-04-06T13:09:50.402Z,7.10
2023-04-06T13:11:22.492Z,7.10
2023-04-06T13:12:32.187Z,7.30
2023-04-06T13:13:40.886Z,6.70
2023-04-06T13:15:02.640Z,7.20
2023-04-06T13:16:07.422Z,6.20
2023-04-06T13:17:21.556Z,6.90
2023-04-06T13:18:44.443Z,7.00
2023-04-06T13:19:58.190Z,8.50
2023-04-06T13:21:00.621Z,7.20
2023-04-06T13:22:16.361Z,7.30
2023-04-06T13:23:19.154Z,7.70
2023-04-06T13:24:24.787Z,7.50
2023-04-06T13:25:57.198Z,7.00
2023-04-06T13:27:00.372Z,7.40
2023-04-06T13:27:58.915Z,6.20
2023-04-06T13:28:57.134Z,7.10
2023-04-06T13:30:08.425Z,6.50
2023-04-06T13:31:41.079Z,6.60
2023-04-06T13:33:10.158Z,8.40
2023-04-06T13:34:22.747Z,6.20
2023-04-06T13:35:43.231Z,6.00
2023-04-06T13:36:43.439Z,6.30
2023-04-06T13:38:06.647Z,6.80
2023-04-06T13:39:39.228Z,7.00
2023-04-06T13:40:55.264Z,6.70
2023-04-06T13:42:16.828Z,6.80
2023-04-06T13:43:42.481Z,7.10
2023-04-06T13:44:54.156Z,7.00
2023-04-06T13:46:09.154Z,6.50
2023-04-06T13:47:41.880Z,6.20
2023-04-06T13:48:48.656Z,6.20
2023-04-06T13:50:01.409Z,6.30
2023-04-06T13:50:49.641Z,6.70
2023-04-06T13:52:04.649Z,6.10
2023-04-06T13:52:59.612Z,6.60
2023-04-06T13:54:09.336Z,6.40
2023-04-06T13:55:26.478Z,6.10
2023-04-06T13:56:24.616Z,7.00
2023-04-06T13:57:37.313Z,7.00
2023-04-06T13:59:00.587Z,6.40
2023-04-06T14:00:33.295Z,6.30
2023-04-06T14:02:08.993Z,6.90
2023-04-06T14:03:41.803Z,6.70
2023-04-06T14:05:14.570Z,6.20
2023-04-06T14:06:31.174Z,6.00
2023-04-06T14:07:44.001Z,6.20
2023-04-06T14:09:08.584Z,6.10
2023-04-06T14:10:09.935Z,6.40
2023-04-06T14:11:26.950Z,7.40
2023-04-06T14:12:39.617Z,6.80
2023-04-06T14:13:58.567Z,6.60
2023-04-06T14:15:31.767Z,6.70
2023-04-06T14:16:54.866Z,7.20
2023-04-06T14:18:27.533Z,6.80
2023-04-06T14:19:39.825Z,6.80
2023-04-06T14:20:55.067Z,8.00
2023-04-06T14:22:05.752Z,7.30
2023-04-06T14:23:28.418Z,7.50
2023-04-06T14:26:04.857Z,7.30
2023-04-06T14:27:27.720Z,7.50
2023-04-06T14:28:49.278Z,7.60
2023-04-06T14:30:21.047Z,8.00
2023-04-06T14:31:52.219Z,8.40
2023-04-06T14:33:07.903Z,7.80
2023-04-06T14:34:13.551Z,7.40
2023-04-06T14:35:46.321Z,8.80
2023-04-06T14:37:07.627Z,8.20
2023-04-06T14:38:02.191Z,7.40
2023-04-06T14:38:55.180Z,8.50
2023-04-06T14:40:27.761Z,8.50
2023-04-06T14:41:30.139Z,7.90
2023-04-06T14:42:52.306Z,7.90
2023-04-06T14:44:13.928Z,7.80
2023-04-06T14:45:39.718Z,8.20
2023-04-06T14:47:06.278Z,8.70
2023-04-06T14:48:39.430Z,8.90
2023-04-06T14:49:57.006Z,7.60
2023-04-06T14:51:25.211Z,8.00
2023-04-06T14:52:52.105Z,7.70
2023-04-06T14:54:24.828Z,7.90
2023-04-06T14:55:38.576Z,7.70
2023-04-06T14:56:39.232Z,8.10
2023-04-06T14:57:36.280Z,8.30
2023-04-06T14:58:39.124Z,8.40
2023-04-06T14:59:40.614Z,8.10
2023-04-06T15:00:54.926Z,7.50
2023-04-06T15:02:00.522Z,8.30
2023-04-06T15:02:55.522Z,7.60
2023-04-06T15:03:52.031Z,7.80
2023-04-06T15:04:41.006Z,7.70
2023-04-06T15:06:06.832Z,8.40
2023-04-06T15:07:08.214Z,8.40
2023-04-06T15:08:33.452Z,8.30
2023-04-06T15:09:48.967Z,7.50
2023-04-06T15:11:12.031Z,8.30
2023-04-06T15:12:13.411Z,8.50
2023-04-06T15:13:46.480Z,8.80
2023-04-06T15:15:09.561Z,8.60
2023-04-06T15:16:17.623Z,7.80
2023-04-06T15:17:38.797Z,8.80
2023-04-06T15:18:43.163Z,9.00
2023-04-06T15:19:57.607Z,8.40
2023-04-06T15:21:10.150Z,8.30
2023-04-06T15:22:15.607Z,8.40
2023-04-06T15:23:30.191Z,8.80
2023-04-06T15:24:46.500Z,8.60
2023-04-06T15:26:08.185Z,9.20
2023-04-06T15:27:08.494Z,8.70
2023-04-06T15:28:28.793Z,7.80
2023-04-06T15:29:35.176Z,7.70
2023-04-06T15:31:07.424Z,7.80
2023-04-06T15:32:27.666Z,7.90
2023-04-06T15:33:21.526Z,7.80
2023-04-06T15:34:26.166Z,8.30
2023-04-06T15:35:39.400Z,7.40
2023-04-06T15:36:48.852Z,7.10
2023-04-06T15:37:34.294Z,7.60
2023-04-06T15:38:45.509Z,7.90
2023-04-06T15:40:00.873Z,8.10
2023-04-06T15:41:23.100Z,8.00
2023-04-06T15:42:35.916Z,7.10
2023-04-06T15:43:57.279Z,7.30
2023-04-06T15:45:30.117Z,7.10
2023-04-06T15:47:55.274Z,7.40
2023-04-06T15:49:11.012Z,7.60
2023-04-06T15:50:43.933Z,6.10
2023-04-06T15:52:16.527Z,6.70
2023-04-06T15:53:16.564Z,5.90
2023-04-06T15:54:29.174Z,6.70
2023-04-06T15:55:28.317Z,7.10
2023-04-06T15:57:00.972Z,8.00
2023-04-06T15:58:33.735Z,6.50
2023-04-06T15:59:45.004Z,7.20
2023-04-06T16:00:40.475Z,7.00
2023-04-06T16:01:46.408Z,6.80
2023-04-06T16:03:19.788Z,6.70
2023-04-06T16:04:35.492Z,7.00
2023-04-06T16:05:59.588Z,6.90